Time;durP1;ratioP1;P1;durP2;ratioP2;P2;SDS_P1;SDS_P2;PMS_P1;PMS_P2;Temp;Humidity;BMP_temperature;BMP_pressure;BME280_temperature;BME280_humidity;BME280_pressure;Samples;Min_cycle;Max_cycle;Signal;HPM_P1;HPM_P2
2023/08/30 00:00:59;;;;;;;15.95;15.35;;;;;;;-141.02;100.00;75067.88;5132989;27;20193;-71
2023/08/30 00:03:26;;;;;;;16.23;15.63;;;;;;;-141.02;100.00;75067.88;5132613;27;20235;-70
2023/08/30 00:05:56;;;;;;;15.43;14.93;;;;;;;-141.02;100.00;75564.03;5132556;28;20287;-57
2023/08/30 00:08:44;;;;;;;15.20;14.70;;;;;;;-141.02;100.00;73331.81;5132790;28;20269;-58
2023/08/30 00:11:11;;;;;;;16.05;15.45;;;;;;;-141.02;100.00;70605.50;5132542;28;20678;-60
2023/08/30 00:13:38;;;;;;;15.00;14.50;;;;;;;-141.02;100.00;71844.47;5131548;28;20234;-70
2023/08/30 00:16:05;;;;;;;14.65;14.15;;;;;;;-141.02;100.00;71101.03;5132532;28;20221;-69
2023/08/30 00:18:32;;;;;;;14.32;13.82;;;;;;;-141.02;100.00;72340.16;5135905;27;20200;-58
2023/08/30 00:21:01;;;;;;;14.38;13.88;;;;;;;-141.02;100.00;72092.31;5136316;27;20228;-70
2023/08/30 00:23:27;;;;;;;13.52;13.13;;;;;;;-141.02;100.00;73331.81;5136200;27;20197;-70
2023/08/30 00:25:54;;;;;;;13.25;12.85;;;;;;;-141.02;100.00;73827.72;5136234;27;20283;-70
2023/08/30 00:28:21;;;;;;;12.95;12.55;;;;;;;-141.02;100.00;73827.72;5136327;27;20242;-58
2023/08/30 00:30:54;;;;;;;12.63;12.23;;;;;;;-141.02;100.00;70853.25;5136370;27;20301;-70
2023/08/30 00:33:21;;;;;;;12.70;12.30;;;;;;;-141.02;100.00;67881.38;5136067;27;20185;-59
2023/08/30 00:35:47;;;;;;;14.23;13.73;;;;;;;-141.02;100.00;68128.91;5136261;27;20264;-61
2023/08/30 00:38:16;;;;;;;13.80;13.40;;;;;;;-141.02;100.00;67633.81;5136616;27;20192;-70
2023/08/30 00:40:43;;;;;;;13.85;13.35;;;;;;;-141.02;100.00;65901.53;5135837;27;20192;-58
2023/08/30 00:43:10;;;;;;;14.50;14.00;;;;;;;-141.02;100.00;63675.59;5135901;27;20228;-70
2023/08/30 00:45:40;;;;;;;14.27;13.77;;;;;;;-141.02;100.00;63181.16;5135805;27;20198;-60
2023/08/30 00:48:09;;;;;;;14.65;14.15;;;;;;;-141.02;100.00;60462.94;5135267;27;20196;-63
2023/08/30 00:50:37;;;;;;;15.10;14.60;;;;;;;-141.02;100.00;60957.00;5135258;27;20232;-71
2023/08/30 00:53:05;;;;;;;14.45;13.95;;;;;;;-141.02;100.00;57993.72;5135961;27;20204;-58
2023/08/30 00:55:34;;;;;;;14.80;14.30;;;;;;;-141.02;100.00;56266.31;5135663;27;20279;-61
2023/08/30 00:58:02;;;;;;;15.70;15.10;;;;;;;-141.02;100.00;54046.69;5135963;27;20636;-58
2023/08/30 01:00:29;;;;;;;15.40;14.80;;;;;;;-141.02;100.00;52956.66;5135570;27;20203;-71
2023/08/30 01:02:57;;;;;;;16.25;15.65;;;;;;;-141.02;100.00;52209.66;5135437;27;20279;-70
2023/08/30 01:05:24;;;;;;;15.32;14.73;;;;;;;-141.02;100.00;49977.28;5135738;27;20192;-67
2023/08/30 01:08:36;;;;;;;15.65;15.05;;;;;;;-141.02;100.00;51634.09;5135413;27;20189;-70
2023/08/30 01:11:12;;;;;;;15.20;14.70;;;;;;;-141.02;100.00;52706.38;5135216;27;20235;-58
2023/08/30 01:13:43;;;;;;;15.55;14.95;;;;;;;-141.02;100.00;54539.81;5135197;27;20776;-70
2023/08/30 01:16:10;;;;;;;15.18;14.68;;;;;;;-141.02;100.00;51366.56;5135576;27;20267;-71
2023/08/30 01:18:40;;;;;;;15.45;14.85;;;;;;;-141.02;100.00;50086.94;5135557;27;20271;-70
2023/08/30 01:21:17;;;;;;;15.50;14.90;;;;;;;-141.02;100.00;51976.72;5135442;27;20283;-69
2023/08/30 01:23:50;;;;;;;14.60;14.10;;;;;;;-141.02;100.00;52357.88;5135462;27;20613;-58
2023/08/30 01:26:27;;;;;;;15.23;14.73;;;;;;;-141.02;100.00;49313.63;5135377;27;20185;-69
2023/08/30 01:29:01;;;;;;;14.88;14.38;;;;;;;-141.02;100.00;51147.16;5134668;27;20187;-57
2023/08/30 01:31:31;;;;;;;15.20;14.70;;;;;;;-141.02;100.00;52791.09;5134966;27;20689;-57
2023/08/30 01:33:59;;;;;;;14.45;13.95;;;;;;;-141.02;100.00;57006.53;5135291;27;20192;-59
2023/08/30 01:36:26;;;;;;;13.82;13.32;;;;;;;-141.02;100.00;59475.03;5135148;27;20188;-57
2023/08/30 01:38:54;;;;;;;13.18;12.77;;;;;;;-141.02;100.00;58487.41;5134797;27;20239;-58
2023/08/30 01:41:23;;;;;;;11.90;11.50;;;;;;;-141.02;100.00;60709.94;5135043;27;20223;-70
2023/08/30 01:43:52;;;;;;;12.50;12.10;;;;;;;-141.02;100.00;58487.41;5135555;27;20192;-71
2023/08/30 01:46:21;;;;;;;12.80;12.40;;;;;;;-141.02;100.00;56513.03;5134716;27;20189;-70
2023/08/30 01:48:50;;;;;;;13.07;12.68;;;;;;;-141.02;100.00;55772.94;5134597;27;20193;-71
2023/08/30 01:51:17;;;;;;;13.10;12.70;;;;;;;-141.02;100.00;55033.00;5134755;27;20255;-70
2023/08/30 01:53:45;;;;;;;13.02;12.63;;;;;;;-141.02;100.00;54273.97;5134442;27;20682;-71
2023/08/30 01:56:12;;;;;;;13.20;12.80;;;;;;;-141.02;100.00;55033.00;5134734;27;20196;-58
2023/08/30 01:58:39;;;;;;;13.00;12.60;;;;;;;-141.02;100.00;53488.16;5134768;27;20196;-70
2023/08/30 02:01:08;;;;;;;13.35;12.95;;;;;;;-141.02;100.00;52217.34;5134300;27;20193;-62
2023/08/30 02:03:36;;;;;;;14.20;13.70;;;;;;;-141.02;100.00;52201.94;5134282;27;20726;-57
2023/08/30 02:06:14;;;;;;;13.80;13.40;;;;;;;-141.02;100.00;50977.81;5134200;27;20288;-70
2023/08/30 02:08:46;;;;;;;13.80;13.40;;;;;;;-141.02;100.00;50367.84;5134571;27;20195;-65
2023/08/30 02:11:18;;;;;;;13.75;13.35;;;;;;;-141.02;100.00;49300.16;5134052;27;20661;-58
2023/08/30 02:13:46;;;;;;;13.40;13.00;;;;;;;-141.02;100.00;50881.59;5133987;27;20300;-58
2023/08/30 02:16:14;;;;;;;13.05;12.65;;;;;;;-141.02;100.00;51689.91;5134322;27;20271;-57
2023/08/30 02:18:43;;;;;;;12.73;12.32;;;;;;;-141.02;100.00;53141.53;5134002;27;20266;-70
2023/08/30 02:21:11;;;;;;;12.65;12.25;;;;;;;-141.02;100.00;54293.25;5133938;27;20235;-64
2023/08/30 02:23:38;;;;;;;12.90;12.50;;;;;;;-141.02;100.00;53771.25;5133897;27;20569;-57
2023/08/30 02:26:05;;;;;;;12.48;12.07;;;;;;;-141.02;100.00;52402.16;5133902;27;20224;-66
2023/08/30 02:28:32;;;;;;;13.20;12.80;;;;;;;-141.02;100.00;50554.47;5134133;27;20241;-71
2023/08/30 02:30:59;;;;;;;12.88;12.48;;;;;;;-141.02;100.00;49731.03;5134059;27;20308;-71
2023/08/30 02:36:49;;;;;;;12.10;11.70;;;;;;;-141.02;100.00;50296.66;5133774;27;20180;-70
2023/08/30 02:39:16;;;;;;;11.70;11.40;;;;;;;-141.02;100.00;50854.66;5133903;27;20220;-70
2023/08/30 02:41:43;;;;;;;12.30;11.90;;;;;;;-141.02;100.00;51124.06;5133372;27;20223;-57
2023/08/30 02:44:21;;;;;;;12.30;11.90;;;;;;;-141.02;100.00;50973.97;5133571;27;20658;-63
2023/08/30 02:46:48;;;;;;;11.63;11.32;;;;;;;-141.02;100.00;51120.22;5133495;27;20746;-71
2023/08/30 02:49:32;;;;;;;11.50;11.20;;;;;;;-141.02;100.00;50238.94;5133471;27;20195;-61
2023/08/30 02:52:14;;;;;;;11.38;11.07;;;;;;;-141.02;100.00;50273.56;5133660;27;20192;-70
2023/08/30 02:54:41;;;;;;;11.50;11.20;;;;;;;-141.02;100.00;50877.75;5133311;27;20202;-57
2023/08/30 02:57:09;;;;;;;11.20;10.90;;;;;;;-141.02;100.00;51443.56;5133695;27;20227;-69
2023/08/30 02:59:35;;;;;;;10.85;10.55;;;;;;;-141.02;100.00;50760.38;5133603;27;20200;-70
2023/08/30 03:02:03;;;;;;;10.80;10.50;;;;;;;-141.02;100.00;51963.25;5133269;27;20196;-70
2023/08/30 03:04:30;;;;;;;11.32;11.02;;;;;;;-141.02;100.00;48142.47;5133499;27;20253;-70
2023/08/30 03:06:57;;;;;;;13.15;12.75;;;;;;;-141.02;100.00;43849.72;5133127;27;20674;-57
2023/08/30 03:09:25;;;;;;;14.00;13.55;;;;;;;-141.02;100.00;43482.94;5133159;27;20196;-57
2023/08/30 03:11:52;;;;;;;12.63;12.23;;;;;;;-141.02;100.00;45044.38;5133318;27;20284;-70
2023/08/30 03:14:19;;;;;;;11.98;11.57;;;;;;;-141.02;100.00;46208.72;5133393;27;20199;-68
2023/08/30 03:16:47;;;;;;;11.80;11.40;;;;;;;-141.02;100.00;48613.56;5133422;27;20192;-67
2023/08/30 03:19:16;;;;;;;11.00;10.70;;;;;;;-141.02;100.00;54046.69;5133299;27;20235;-71
2023/08/30 03:21:43;;;;;;;9.85;9.55;;;;;;;-141.02;100.00;59228.09;5132999;27;20277;-58
2023/08/30 03:24:10;;;;;;;9.60;9.30;;;;;;;-141.02;100.00;63181.16;5132927;27;20222;-57
2023/08/30 03:26:40;;;;;;;8.93;8.73;;;;;;;-141.02;100.00;67138.78;5133003;27;20192;-57
2023/08/30 03:29:07;;;;;;;8.80;8.60;;;;;;;-141.02;100.00;69862.34;5132972;27;20587;-62
2023/08/30 03:31:34;;;;;;;8.75;8.55;;;;;;;-141.02;100.00;71844.47;5132775;27;20224;-57
2023/08/30 03:34:01;;;;;;;8.07;7.88;;;;;;;-141.02;100.00;74571.75;5133182;27;20196;-69
2023/08/30 03:36:29;;;;;;;7.30;7.10;;;;;;;-141.02;100.00;76556.59;5132792;27;20631;-57
2023/08/30 03:38:57;;;;;;;7.28;7.07;;;;;;;-141.02;100.00;77053.00;5133145;27;20273;-71
2023/08/30 03:41:24;;;;;;;6.43;6.30;;;;;;;-141.02;100.00;77053.00;5132880;27;20192;-57
2023/08/30 03:43:52;;;;;;;7.07;6.88;;;;;;;-141.02;100.00;77549.47;5132828;27;20230;-70
2023/08/30 03:46:19;;;;;;;7.10;6.90;;;;;;;-141.02;100.00;78542.63;5132787;27;20257;-70
2023/08/30 03:48:46;;;;;;;6.30;6.20;;;;;;;-141.02;100.00;79287.66;5132718;27;20230;-57
2023/08/30 03:51:13;;;;;;;5.85;5.75;;;;;;;-141.02;100.00;80281.31;5132663;27;20235;-57
2023/08/30 03:53:40;;;;;;;6.20;6.10;;;;;;;-141.02;100.00;81026.72;5136632;27;20193;-71
2023/08/30 03:56:07;;;;;;;6.35;6.25;;;;;;;-141.02;100.00;81523.75;5137176;27;20257;-57
2023/08/30 03:58:34;;;;;;;6.80;6.60;;;;;;;-141.02;100.00;82518.06;5136758;27;20737;-71
2023/08/30 04:01:03;;;;;;;6.45;6.30;;;;;;;-141.02;100.00;83015.31;5137031;27;20607;-71
2023/08/30 04:03:30;;;;;;;6.22;6.13;;;;;;;-141.02;100.00;82518.06;5136633;27;20249;-71
2023/08/30 04:05:57;;;;;;;7.45;7.25;;;;;;;-141.02;100.00;81772.31;5136867;27;20196;-57
2023/08/30 04:08:24;;;;;;;7.45;7.25;;;;;;;-141.02;100.00;81275.25;5136610;27;20269;-57
2023/08/30 04:10:54;;;;;;;8.10;7.90;;;;;;;-141.02;100.00;81523.75;5136436;27;20284;-71
2023/08/30 04:13:21;;;;;;;9.00;8.80;;;;;;;-141.02;100.00;80778.25;5136112;27;20328;-71
2023/08/30 04:15:49;;;;;;;9.48;9.18;;;;;;;-141.02;100.00;80281.31;5136734;27;20211;-71
2023/08/30 04:18:17;;;;;;;10.77;10.48;;;;;;;-141.02;100.00;78294.28;5136337;27;20197;-57
2023/08/30 04:20:45;;;;;;;12.38;11.98;;;;;;;-141.02;100.00;76308.44;5136322;27;20195;-57
2023/08/30 04:23:12;;;;;;;13.70;13.30;;;;;;;-141.02;100.00;75564.03;5136277;27;20193;-71
2023/08/30 04:25:39;;;;;;;13.10;12.70;;;;;;;-141.02;100.00;74571.75;5136190;27;20192;-71
2023/08/30 04:28:06;;;;;;;14.07;13.68;;;;;;;-141.02;100.00;72588.06;5136204;27;20658;-59
2023/08/30 04:30:34;;;;;;;15.60;15.10;;;;;;;-141.02;100.00;71844.47;5136381;27;20230;-57
2023/08/30 04:33:02;;;;;;;15.68;15.18;;;;;;;-141.02;100.00;71844.47;5136072;27;20661;-71
2023/08/30 04:35:31;;;;;;;15.07;14.57;;;;;;;-141.02;100.00;70357.75;5136075;27;20677;-71
2023/08/30 04:37:59;;;;;;;15.52;15.02;;;;;;;-141.02;100.00;67881.38;5136315;27;20193;-71
2023/08/30 04:40:26;;;;;;;16.13;15.52;;;;;;;-141.02;100.00;68871.72;5135977;27;20610;-57
2023/08/30 04:42:53;;;;;;;14.85;14.35;;;;;;;-141.02;100.00;69366.97;5136179;27;20578;-57
2023/08/30 04:45:20;;;;;;;14.80;14.30;;;;;;;-141.02;100.00;70853.25;5135872;27;20572;-59
2023/08/30 04:47:47;;;;;;;16.75;16.05;;;;;;;-141.02;100.00;74819.81;5136043;27;20197;-67
2023/08/30 04:50:14;;;;;;;25.88;24.48;;;;;;;-141.02;100.00;77053.00;5136000;27;20621;-61
2023/08/30 04:52:43;;;;;;;27.95;25.67;;;;;;;-141.02;100.00;80529.75;5135980;27;20292;-61
2023/08/30 04:55:11;;;;;;;23.27;22.27;;;;;;;-141.02;100.00;84258.75;5135710;27;20209;-64
2023/08/30 04:57:37;;;;;;;30.63;28.92;;;;;;;-141.02;100.00;86995.94;5136209;27;20200;-65
2023/08/30 05:00:06;;;;;;;28.00;26.30;;;;;;;-141.02;100.00;90233.56;5134237;27;20956;-65
2023/08/30 05:02:33;;;;;;;24.90;23.40;;;;;;;-141.02;100.00;92975.47;5135585;27;20188;-66
2023/08/30 05:05:01;;;;;;;21.35;20.15;;;;;;;-141.02;100.00;96218.69;5134447;27;20688;-64
2023/08/30 05:07:28;;;;;;;21.48;20.27;;;;;;;-141.02;100.00;98216.03;5135412;27;20188;-64
2023/08/30 05:09:57;;;;;;;21.50;20.30;;;;;;;-141.02;100.00;100214.53;5135347;27;20241;-65
2023/08/30 05:12:24;;;;;;;18.50;17.60;;;;;;;-141.02;100.00;102214.16;5135039;27;20232;-64
2023/08/30 05:14:51;;;;;;;17.80;17.00;;;;;;;-141.02;100.00;104214.97;5135328;27;20214;-64
2023/08/30 05:17:18;;;;;;;18.75;17.85;;;;;;;-141.02;100.00;105466.03;5135497;27;20227;-64
2023/08/30 05:19:45;;;;;;;18.60;17.70;;;;;;;-141.02;100.00;105966.59;5135189;27;20188;-64
2023/08/30 05:22:12;;;;;;;18.08;17.27;;;;;;;-141.02;100.00;106467.22;5135089;27;20192;-63
2023/08/30 05:24:39;;;;;;;17.30;16.50;;;;;;;-141.02;100.00;106717.56;5135419;27;20192;-62
2023/08/30 05:27:08;;;;;;;17.38;16.58;;;;;;;-141.02;100.00;107218.31;5135031;27;20192;-63
2023/08/30 05:29:35;;;;;;;17.55;16.75;;;;;;;-141.02;100.00;107468.69;5135292;27;20203;-64
2023/08/30 05:32:02;;;;;;;18.88;18.08;;;;;;;-141.02;100.00;107719.09;5134914;27;20254;-63
2023/08/30 05:34:29;;;;;;;19.42;18.63;;;;;;;-141.02;100.00;107969.53;5135206;27;20232;-62
2023/08/30 05:36:56;;;;;;;18.23;17.52;;;;;;;-141.02;100.00;107969.53;5134847;27;20662;-61
2023/08/30 05:39:23;;;;;;;17.88;17.17;;;;;;;-141.02;100.00;107969.53;5135112;27;20343;-62
2023/08/30 05:41:50;;;;;;;17.70;17.10;;;;;;;-141.02;100.00;107969.53;5135076;27;20228;-60
2023/08/30 05:44:18;;;;;;;16.75;16.15;;;;;;;-141.02;100.00;107969.53;5135023;27;20224;-60
2023/08/30 05:46:45;;;;;;;15.32;14.82;;;;;;;-141.02;100.00;107719.09;5134954;27;20203;-59
2023/08/30 05:49:12;;;;;;;14.30;13.90;;;;;;;-141.02;100.00;107719.09;5135108;27;20199;-59
2023/08/30 05:51:39;;;;;;;14.20;13.80;;;;;;;-141.02;100.00;107969.53;5134513;27;20642;-59
2023/08/30 05:54:06;;;;;;;15.40;14.90;;;;;;;-141.02;100.00;107468.69;5134814;27;20234;-58
2023/08/30 05:56:33;;;;;;;15.75;15.25;;;;;;;-141.02;100.00;107218.31;5134783;27;20199;-59
2023/08/30 05:59:00;;;;;;;14.57;14.18;;;;;;;-141.02;100.00;107468.69;5134645;27;20271;-58
2023/08/30 06:01:29;;;;;;;15.20;14.70;;;;;;;-141.02;100.00;107719.09;5134661;27;20269;-59
2023/08/30 06:03:56;;;;;;;14.40;14.00;;;;;;;-141.02;100.00;107719.09;5134575;27;20272;-58
2023/08/30 06:06:23;;;;;;;13.18;12.77;;;;;;;-141.02;100.00;107719.09;5134631;27;20196;-58
2023/08/30 06:08:50;;;;;;;10.50;10.20;;;;;;;-141.02;100.00;107719.09;5134514;27;20189;-58
2023/08/30 06:11:17;;;;;;;9.75;9.45;;;;;;;-141.02;100.00;104715.34;5134122;27;20224;-58
2023/08/30 06:13:44;;;;;;;12.82;12.43;;;;;;;-141.02;100.00;99215.16;5134049;27;20255;-58
2023/08/30 06:16:11;;;;;;;16.25;15.65;;;;;;;-141.02;100.00;96218.69;5133912;27;20192;-58
2023/08/30 06:18:39;;;;;;;20.45;19.55;;;;;;;-141.02;100.00;91978.16;5134053;27;20196;-69
2023/08/30 06:21:06;;;;;;;22.63;21.52;;;;;;;-141.02;100.00;89735.28;5134274;27;20204;-58
2023/08/30 06:23:34;;;;;;;23.98;22.77;;;;;;;-141.02;100.00;90981.13;5133929;27;20228;-69
2023/08/30 06:26:02;;;;;;;25.63;24.23;;;;;;;-141.02;100.00;87991.81;5133954;27;20657;-58
2023/08/30 06:28:29;;;;;;;25.52;24.20;;;;;;;-141.02;100.00;86249.22;5133799;27;20626;-58
2023/08/30 06:30:57;;;;;;;23.67;22.48;;;;;;;-141.02;100.00;89237.03;5134042;27;20225;-58
2023/08/30 06:33:24;;;;;;;24.65;23.35;;;;;;;-141.02;100.00;88240.81;5133720;27;20196;-58
2023/08/30 06:35:53;;;;;;;23.52;22.35;;;;;;;-141.02;100.00;88489.84;5133798;27;20192;-60
2023/08/30 06:38:20;;;;;;;23.85;22.65;;;;;;;-141.02;100.00;87991.81;5133613;27;20249;-58
2023/08/30 06:40:47;;;;;;;23.15;22.05;;;;;;;-141.02;100.00;87493.84;5133639;27;20654;-58
2023/08/30 06:43:14;;;;;;;20.25;19.35;;;;;;;-141.02;100.00;86995.94;5133581;27;20196;-65
2023/08/30 06:45:42;;;;;;;19.27;18.48;;;;;;;-141.02;100.00;85253.84;5133861;27;20283;-58
2023/08/30 06:48:09;;;;;;;19.20;18.40;;;;;;;-141.02;100.00;87991.81;5133623;27;20694;-57
2023/08/30 06:50:37;;;;;;;17.73;17.02;;;;;;;-141.02;100.00;90482.72;5133404;27;20249;-57
2023/08/30 06:53:05;;;;;;;14.70;14.20;;;;;;;-141.02;100.00;92227.47;5133472;27;20193;-58
2023/08/30 06:55:33;;;;;;;15.23;14.73;;;;;;;-141.02;100.00;85751.50;5133421;27;20651;-70
2023/08/30 06:58:00;;;;;;;14.25;13.85;;;;;;;-141.02;100.00;86000.34;5133659;27;20261;-70
2023/08/30 07:00:27;;;;;;;13.90;13.50;;;;;;;-141.02;100.00;86498.09;5133531;27;20283;-57
2023/08/30 07:02:54;;;;;;;13.82;13.43;;;;;;;-141.02;100.00;83761.31;5133552;27;20228;-58
2023/08/30 07:05:21;;;;;;;14.43;14.02;;;;;;;-141.02;100.00;83512.63;5133572;27;20200;-67
2023/08/30 07:07:48;;;;;;;14.98;14.48;;;;;;;-141.02;100.00;82020.88;5133198;27;20224;-58
2023/08/30 07:10:16;;;;;;;14.80;14.30;;;;;;;-141.02;100.00;81275.25;5133105;27;20196;-57
2023/08/30 07:12:45;;;;;;;13.88;13.48;;;;;;;-141.02;100.00;81026.72;5133072;27;20267;-57
2023/08/30 07:15:12;;;;;;;14.80;14.30;;;;;;;-141.02;100.00;78790.94;5133062;27;20626;-70
2023/08/30 07:17:42;;;;;;;14.15;13.75;;;;;;;-141.02;100.00;80281.31;5133049;27;20283;-70
2023/08/30 07:20:10;;;;;;;14.05;13.65;;;;;;;-141.02;100.00;81026.72;5132939;27;20192;-62
2023/08/30 07:22:37;;;;;;;14.80;14.30;;;;;;;-141.02;100.00;80281.31;5132895;27;20680;-58
2023/08/30 07:25:05;;;;;;;14.07;13.68;;;;;;;-141.02;100.00;81772.31;5132942;28;20192;-70
2023/08/30 07:27:34;;;;;;;14.23;13.73;;;;;;;-141.02;100.00;78790.94;5132449;27;20663;-57
2023/08/30 07:30:01;;;;;;;16.35;15.75;;;;;;;-141.02;100.00;78542.63;5133278;27;20715;-60
2023/08/30 07:32:28;;;;;;;15.10;14.60;;;;;;;-141.02;100.00;78542.63;5133025;28;20228;-58
2023/08/30 07:34:55;;;;;;;14.27;13.88;;;;;;;-141.02;100.00;79784.44;5133145;28;20192;-59
2023/08/30 07:37:23;;;;;;;13.70;13.30;;;;;;;-141.02;100.00;80778.25;5132607;28;20213;-62
2023/08/30 07:39:52;;;;;;;14.57;14.07;;;;;;;-141.02;100.00;79287.66;5132726;27;20204;-60
2023/08/30 07:42:19;;;;;;;15.57;15.07;;;;;;;-141.02;100.00;77797.72;5132885;27;20192;-59
2023/08/30 07:44:48;;;;;;;16.02;15.43;;;;;;;-141.02;100.00;76060.28;5132996;28;20658;-70
2023/08/30 07:47:15;;;;;;;14.88;14.38;;;;;;;-141.02;100.00;75315.94;5132696;28;20196;-59
2023/08/30 07:49:42;;;;;;;28.17;26.73;;;;;;;-141.02;100.00;71596.63;5132998;28;20283;-62
2023/08/30 07:52:10;;;;;;;15.73;15.13;;;;;;;-141.02;100.00;72588.06;5132664;27;20279;-58
2023/08/30 07:54:38;;;;;;;14.82;14.23;;;;;;;-141.02;100.00;73579.75;5132872;28;20193;-66
2023/08/30 07:57:05;;;;;;;15.23;14.63;;;;;;;-141.02;100.00;73083.88;5132667;28;20251;-71
2023/08/30 07:59:34;;;;;;;15.45;14.85;;;;;;;-141.02;100.00;70853.25;5132924;27;20257;-58
2023/08/30 08:02:07;;;;;;;16.15;15.55;;;;;;;-141.02;100.00;71101.03;5132870;28;20196;-59
2023/08/30 08:04:35;;;;;;;15.30;14.70;;;;;;;-141.02;100.00;73083.88;5132615;27;20224;-71
2023/08/30 08:07:02;;;;;;;15.60;14.80;;;;;;;-141.02;100.00;70605.50;5132454;28;20647;-59
2023/08/30 08:09:29;;;;;;;15.68;14.88;;;;;;;-141.02;100.00;70605.50;5132480;28;20224;-59
2023/08/30 08:11:57;;;;;;;15.82;14.93;;;;;;;-141.02;100.00;65654.13;5132324;28;20220;-60
2023/08/30 08:14:24;;;;;;;15.73;14.82;;;;;;;-141.02;100.00;67138.78;5132769;28;20571;-71
2023/08/30 08:16:51;;;;;;;15.50;14.70;;;;;;;-141.02;100.00;66148.94;5132787;28;20275;-58
2023/08/30 08:19:20;;;;;;;15.60;14.80;;;;;;;-141.02;100.00;66891.31;5132303;28;20723;-59
2023/08/30 08:21:47;;;;;;;15.48;14.68;;;;;;;-141.02;100.00;67386.28;5132374;28;20700;-58
2023/08/30 08:24:14;;;;;;;15.65;14.75;;;;;;;-141.02;100.00;70110.03;5132270;28;20196;-59
2023/08/30 08:26:41;;;;;;;17.10;15.90;;;;;;;-141.02;99.05;66396.38;5132243;28;20232;-59
2023/08/30 08:29:09;;;;;;;16.70;15.50;;;;;;;-141.02;100.00;64664.72;5132507;27;20198;-59
2023/08/30 08:31:35;;;;;;;15.68;14.68;;;;;;;-141.02;100.00;66891.31;5132119;28;20224;-59
2023/08/30 08:34:11;;;;;;;17.33;16.02;;;;;;;-141.02;94.91;62439.59;5132088;28;20192;-70
2023/08/30 08:36:40;;;;;;;17.75;16.45;;;;;;;-141.02;90.26;62686.75;5132420;28;20575;-68
2023/08/30 08:39:08;;;;;;;18.55;17.05;;;;;;;-141.02;85.07;61204.03;5133058;27;20197;-59
2023/08/30 08:41:41;;;;;;;20.23;18.50;;;;;;;-141.02;76.92;54485.88;5136219;27;20249;-59
2023/08/30 08:44:09;;;;;;;19.20;17.60;;;;;;;-141.02;78.96;52679.41;5135789;27;20224;-59
2023/08/30 08:46:38;;;;;;;18.65;17.15;;;;;;;-141.02;81.30;51940.16;5135983;27;20192;-60
2023/08/30 08:49:10;;;;;;;18.38;16.98;;;;;;;-141.02;83.88;54524.41;5135686;27;20199;-71
2023/08/30 08:51:39;;;;;;;18.60;17.20;;;;;;;-141.02;86.28;58487.41;5135746;27;20212;-59
2023/08/30 08:54:09;;;;;;;19.10;17.60;;;;;;;-141.02;77.52;54873.09;5135763;27;20241;-62
2023/08/30 08:56:36;;;;;;;18.73;17.33;;;;;;;-141.02;78.75;55040.72;5135581;27;20672;-59
2023/08/30 08:59:03;;;;;;;18.52;17.15;;;;;;;-141.02;75.45;54408.81;5135862;27;20196;-60
2023/08/30 09:01:33;;;;;;;18.90;17.60;;;;;;;-141.02;78.25;54231.59;5135574;27;20676;-69
2023/08/30 09:04:01;;;;;;;19.52;18.13;;;;;;;-141.02;67.92;48192.44;5135572;27;20193;-72
2023/08/30 09:06:30;;;;;;;18.83;17.52;;;;;;;-141.02;73.70;48327.06;5135794;27;20199;-59
2023/08/30 09:08:58;;;;;;;19.08;17.67;;;;;;;-141.02;69.70;48082.84;5135480;27;20206;-59
2023/08/30 09:11:25;;;;;;;18.95;17.65;;;;;;;-141.02;69.46;48090.53;5135367;27;20192;-60
2023/08/30 09:13:52;;;;;;;19.20;17.90;;;;;;;-141.02;65.71;47108.16;5135223;27;20311;-72
2023/08/30 09:16:19;;;;;;;19.08;17.77;;;;;;;-141.02;62.76;44804.25;5135607;27;20197;-72
2023/08/30 09:18:46;;;;;;;19.02;17.73;;;;;;;-141.02;66.16;45774.44;5135300;27;20192;-72
2023/08/30 09:21:13;;;;;;;19.17;17.98;;;;;;;-141.02;65.42;45943.53;5135423;27;20552;-59
2023/08/30 09:23:40;;;;;;;19.50;18.20;;;;;;;-141.02;59.06;44583.38;5135167;27;20196;-59
2023/08/30 09:26:08;;;;;;;19.35;18.13;;;;;;;-141.02;58.58;43966.84;5135401;27;20265;-59
2023/08/30 09:28:44;;;;;;;19.30;18.10;;;;;;;-141.02;58.15;43794.03;5135368;27;20231;-73
2023/08/30 09:31:20;;;;;;;19.85;18.65;;;;;;;-141.02;60.90;44713.97;5135289;27;20200;-60
2023/08/30 09:33:48;;;;;;;19.45;18.35;;;;;;;-141.02;57.78;44049.44;5134879;27;20315;-74
2023/08/30 09:36:15;;;;;;;20.30;19.20;;;;;;;-141.02;57.51;43419.59;5135199;27;20200;-60
2023/08/30 09:38:49;;;;;;;19.95;18.85;;;;;;;-141.02;60.87;44153.16;5134830;27;20200;-74
2023/08/30 09:41:18;;;;;;;20.77;19.67;;;;;;;-141.02;59.11;44107.06;5135038;27;20185;-72
2023/08/30 09:43:47;;;;;;;21.90;20.80;;;;;;;-141.02;57.91;43665.38;5134706;27;20197;-74
2023/08/30 09:46:14;;;;;;;21.20;20.20;;;;;;;-141.02;59.86;43995.66;5135013;27;20692;-59
2023/08/30 09:48:42;;;;;;;21.63;20.52;;;;;;;-141.02;57.63;43905.41;5134671;27;20249;-67
2023/08/30 09:51:10;;;;;;;22.55;21.45;;;;;;;-141.02;56.08;43824.75;5134319;27;20240;-60
2023/08/30 09:53:43;;;;;;;22.42;21.33;;;;;;;-141.02;56.94;44598.72;5134748;27;20236;-60
2023/08/30 09:56:14;;;;;;;22.02;20.92;;;;;;;-141.02;58.14;43515.59;5134530;27;20185;-60
2023/08/30 09:58:43;;;;;;;23.77;22.58;;;;;;;-141.02;56.57;43369.66;5134459;27;20668;-60
2023/08/30 10:01:10;;;;;;;24.52;23.33;;;;;;;-141.02;57.31;43621.22;5134736;27;20593;-60
2023/08/30 10:03:38;;;;;;;24.10;22.90;;;;;;;-141.02;56.14;43102.78;5134673;27;20196;-59
2023/08/30 10:06:06;;;;;;;24.23;23.02;;;;;;;-141.02;58.00;43254.47;5134312;27;20193;-60
2023/08/30 10:08:36;;;;;;;24.10;22.90;;;;;;;-141.02;55.43;43371.59;5134337;27;20203;-61
2023/08/30 10:11:05;;;;;;;22.65;21.45;;;;;;;-141.02;57.25;43938.06;5134283;27;20188;-60
2023/08/30 10:13:34;;;;;;;23.60;22.40;;;;;;;-141.02;54.31;43809.38;5133927;27;20240;-60
2023/08/30 10:16:06;;;;;;;23.95;22.73;;;;;;;-141.02;55.96;43717.22;5134092;27;20657;-60
2023/08/30 10:18:36;;;;;;;22.50;21.30;;;;;;;-141.02;55.79;44110.88;5134425;27;20184;-74
2023/08/30 10:21:08;;;;;;;23.98;22.67;;;;;;;-141.02;54.96;43331.28;5134007;27;20192;-63
2023/08/30 10:23:37;;;;;;;23.70;22.40;;;;;;;-141.02;56.65;43561.69;5134046;27;20191;-74
2023/08/30 10:26:06;;;;;;;23.55;22.25;;;;;;;-141.02;54.92;43605.84;5134199;27;20228;-61
2023/08/30 10:28:35;;;;;;;22.58;21.38;;;;;;;-141.02;54.34;43738.34;5134225;27;20264;-74
2023/08/30 10:31:04;;;;;;;23.02;21.83;;;;;;;-141.02;54.08;43659.59;5134226;27;20231;-60
2023/08/30 10:33:31;;;;;;;22.85;21.55;;;;;;;-141.02;53.62;43504.06;5134029;27;20236;-61
2023/08/30 10:36:06;;;;;;;22.67;21.38;;;;;;;-141.02;54.76;43565.53;5133708;27;20196;-62
2023/08/30 10:38:38;;;;;;;22.70;21.42;;;;;;;-141.02;54.76;43511.75;5133997;27;20184;-60
2023/08/30 10:41:08;;;;;;;22.17;20.92;;;;;;;-141.02;53.60;43315.91;5133745;27;20184;-75
2023/08/30 10:43:37;;;;;;;22.30;21.10;;;;;;;-141.02;54.90;43621.22;5133905;27;20214;-60
2023/08/30 10:46:07;;;;;;;22.10;20.83;;;;;;;-141.02;55.43;43542.47;5133577;27;20667;-59
2023/08/30 10:48:38;;;;;;;22.27;20.98;;;;;;;-141.02;55.14;43650.00;5133875;27;20196;-60
2023/08/30 10:51:21;;;;;;;21.52;20.33;;;;;;;-141.02;52.95;43467.59;5133467;27;20545;-73
2023/08/30 10:53:57;;;;;;;21.55;20.35;;;;;;;-141.02;55.14;43219.91;5133571;27;20212;-72
2023/08/30 10:56:29;;;;;;;21.52;20.33;;;;;;;-141.02;54.45;43219.91;5133414;27;20188;-73
2023/08/30 10:58:56;;;;;;;21.40;20.17;;;;;;;-141.02;53.88;43212.22;5133399;27;20647;-74
2023/08/30 11:01:25;;;;;;;21.27;20.05;;;;;;;-141.02;53.39;43308.22;5132718;27;20670;-70
2023/08/30 11:03:53;;;;;;;21.25;20.15;;;;;;;-141.02;54.53;43335.09;5133173;27;20195;-59
2023/08/30 11:06:21;;;;;;;21.55;20.25;;;;;;;-141.02;54.44;43317.81;5133506;27;20219;-60